Time;durP1;ratioP1;P1;durP2;ratioP2;P2;SDS_P1;SDS_P2;PMS_P1;PMS_P2;Temp;Humidity;BMP_temperature;BMP_pressure;BME280_temperature;BME280_humidity;BME280_pressure;Samples;Min_cycle;Max_cycle;Signal;HPM_P1;HPM_P2
2021/12/30 00:01:33;;;;;;;15.20;3.87;;;;;;;;;;5048349;28;20049;-58
2021/12/30 00:04:00;;;;;;;18.77;3.30;;;;;;;;;;5048372;28;20375;-59
2021/12/30 00:06:26;;;;;;;10.10;2.58;;;;;;;;;;5041439;28;20384;-58
2021/12/30 00:08:54;;;;;;;21.50;5.00;;;;;;;;;;5028111;28;20111;-58
2021/12/30 00:11:22;;;;;;;15.20;4.43;;;;;;;;;;5031520;28;20053;-59
2021/12/30 00:13:49;;;;;;;13.98;3.00;;;;;;;;;;5047837;28;20338;-58
2021/12/30 00:16:18;;;;;;;21.17;4.90;;;;;;;;;;5043879;28;20051;-59
2021/12/30 00:18:45;;;;;;;18.95;5.53;;;;;;;;;;5048328;28;20048;-58
2021/12/30 00:21:11;;;;;;;40.70;5.50;;;;;;;;;;5044283;28;20589;-59
2021/12/30 00:23:38;;;;;;;22.13;4.43;;;;;;;;;;5048339;28;20052;-59
2021/12/30 00:26:05;;;;;;;24.17;5.22;;;;;;;;;;5041064;28;20045;-59
2021/12/30 00:28:31;;;;;;;18.60;4.07;;;;;;;;;;5045721;28;20137;-59
2021/12/30 00:30:58;;;;;;;23.17;5.43;;;;;;;;;;5058069;28;20049;-58
2021/12/30 00:33:27;;;;;;;37.05;6.38;;;;;;;;;;5048317;28;20550;-59
2021/12/30 00:35:54;;;;;;;23.67;5.20;;;;;;;;;;5038191;28;20144;-58
2021/12/30 00:38:21;;;;;;;18.65;3.83;;;;;;;;;;5027670;28;20104;-59
2021/12/30 00:40:49;;;;;;;27.98;5.47;;;;;;;;;;5021836;28;20108;-59
2021/12/30 00:43:16;;;;;;;33.83;4.78;;;;;;;;;;5028162;28;20064;-61
2021/12/30 00:45:42;;;;;;;24.13;5.22;;;;;;;;;;5025682;28;20061;-58
2021/12/30 00:48:09;;;;;;;25.50;4.97;;;;;;;;;;5031373;28;20102;-57
2021/12/30 00:50:40;;;;;;;18.17;3.78;;;;;;;;;;5047919;28;20055;-58
2021/12/30 00:53:07;;;;;;;27.02;4.88;;;;;;;;;;5021089;28;20136;-59
2021/12/30 00:55:34;;;;;;;30.23;4.88;;;;;;;;;;5008084;28;20057;-58
2021/12/30 00:58:00;;;;;;;24.85;4.00;;;;;;;;;;5020418;28;20064;-58
2021/12/30 01:00:27;;;;;;;19.42;3.95;;;;;;;;;;5035300;28;20080;-60
2021/12/30 01:02:54;;;;;;;32.35;4.28;;;;;;;;;;5046651;28;20483;-58
2021/12/30 01:05:21;;;;;;;23.08;3.72;;;;;;;;;;5050509;28;20061;-57
2021/12/30 01:07:49;;;;;;;22.05;3.88;;;;;;;;;;5033775;28;20056;-58
2021/12/30 01:10:17;;;;;;;22.77;4.43;;;;;;;;;;5028494;28;20058;-58
2021/12/30 01:12:45;;;;;;;28.38;3.83;;;;;;;;;;5026989;28;20076;-58
2021/12/30 01:15:13;;;;;;;27.67;3.88;;;;;;;;;;5027289;28;20080;-60
2021/12/30 01:17:47;;;;;;;20.67;3.20;;;;;;;;;;5029340;28;20049;-58
2021/12/30 01:20:15;;;;;;;21.00;3.85;;;;;;;;;;5047594;28;20049;-58
2021/12/30 01:22:42;;;;;;;30.45;3.70;;;;;;;;;;5042891;28;20077;-59
2021/12/30 01:25:11;;;;;;;17.35;3.22;;;;;;;;;;5046743;28;20052;-58
2021/12/30 01:27:40;;;;;;;21.27;3.83;;;;;;;;;;5042223;28;20107;-61
2021/12/30 01:30:08;;;;;;;16.17;3.65;;;;;;;;;;5046644;28;20136;-58
2021/12/30 01:32:34;;;;;;;23.45;4.03;;;;;;;;;;5043915;28;20132;-57
2021/12/30 01:35:03;;;;;;;11.63;3.05;;;;;;;;;;5025343;28;20058;-60
2021/12/30 01:37:30;;;;;;;24.90;4.95;;;;;;;;;;5044156;28;20057;-57
2021/12/30 01:39:56;;;;;;;24.88;4.72;;;;;;;;;;5041917;28;20061;-58
2021/12/30 01:42:24;;;;;;;23.77;5.45;;;;;;;;;;5046538;28;20048;-58
2021/12/30 01:44:51;;;;;;;29.90;5.97;;;;;;;;;;5042732;28;20076;-59
2021/12/30 01:47:17;;;;;;;25.35;4.40;;;;;;;;;;5046258;28;20049;-58
2021/12/30 01:49:46;;;;;;;22.35;4.95;;;;;;;;;;5041738;28;20053;-59
2021/12/30 01:52:12;;;;;;;28.58;5.55;;;;;;;;;;5046115;28;20071;-58
2021/12/30 01:54:39;;;;;;;24.58;4.68;;;;;;;;;;5042026;28;20060;-58
2021/12/30 01:57:06;;;;;;;24.42;5.13;;;;;;;;;;5045831;28;20094;-58
2021/12/30 01:59:34;;;;;;;21.55;4.72;;;;;;;;;;5042708;28;20061;-58
2021/12/30 02:02:01;;;;;;;14.60;3.80;;;;;;;;;;5047919;28;20458;-58
2021/12/30 02:04:28;;;;;;;18.27;4.32;;;;;;;;;;5042505;28;20121;-58
2021/12/30 02:06:55;;;;;;;24.67;5.40;;;;;;;;;;5045659;28;20073;-58
2021/12/30 02:09:23;;;;;;;25.33;4.75;;;;;;;;;;5041945;28;20045;-58
2021/12/30 02:11:50;;;;;;;46.15;7.47;;;;;;;;;;5046200;28;20053;-60
2021/12/30 02:14:17;;;;;;;42.00;6.55;;;;;;;;;;5041730;28;20076;-58
2021/12/30 02:16:45;;;;;;;31.10;6.25;;;;;;;;;;5025858;28;20058;-58
2021/12/30 02:19:12;;;;;;;36.22;6.78;;;;;;;;;;5025965;28;20479;-61
2021/12/30 02:21:40;;;;;;;41.05;6.15;;;;;;;;;;5055978;28;20060;-59
2021/12/30 02:24:06;;;;;;;45.13;6.87;;;;;;;;;;5058698;28;20077;-58
2021/12/30 02:26:33;;;;;;;30.65;6.13;;;;;;;;;;5058357;28;20138;-58
2021/12/30 02:29:00;;;;;;;25.15;4.50;;;;;;;;;;5046022;28;20057;-60
2021/12/30 02:31:29;;;;;;;36.95;7.18;;;;;;;;;;5042593;28;20091;-58
2021/12/30 02:33:56;;;;;;;31.10;5.90;;;;;;;;;;5046398;28;20140;-58
2021/12/30 02:36:25;;;;;;;35.72;7.38;;;;;;;;;;5044461;28;20044;-58
2021/12/30 02:38:51;;;;;;;;;;;;;;;;;;5049849;28;20053;-58
2021/12/30 02:41:23;;;;;;;21.42;5.82;;;;;;;;;;5061740;28;19978;-58
2021/12/30 02:43:50;;;;;;;37.20;6.15;;;;;;;;;;5065881;28;20044;-58
2021/12/30 02:46:16;;;;;;;30.05;6.30;;;;;;;;;;5061560;28;20036;-58
2021/12/30 02:48:43;;;;;;;29.70;5.53;;;;;;;;;;5048989;28;20053;-57
2021/12/30 02:51:13;;;;;;;29.08;5.97;;;;;;;;;;5045434;28;20088;-58
2021/12/30 02:53:40;;;;;;;25.80;6.07;;;;;;;;;;5048797;28;20072;-58
2021/12/30 02:56:07;;;;;;;26.77;6.43;;;;;;;;;;5045230;28;20080;-60
2021/12/30 02:58:35;;;;;;;22.80;5.68;;;;;;;;;;5048243;28;20051;-57
2021/12/30 03:01:05;;;;;;;25.85;5.30;;;;;;;;;;5044006;28;20113;-58
2021/12/30 03:03:31;;;;;;;22.88;5.80;;;;;;;;;;5027865;28;20148;-59
2021/12/30 03:05:58;;;;;;;28.00;6.15;;;;;;;;;;5043568;28;20060;-60
2021/12/30 03:08:25;;;;;;;23.42;6.25;;;;;;;;;;5060008;28;20131;-59
2021/12/30 03:10:52;;;;;;;16.38;5.95;;;;;;;;;;5064989;28;20052;-59
2021/12/30 03:13:25;;;;;;;28.77;6.10;;;;;;;;;;5044473;28;20048;-60
2021/12/30 03:15:53;;;;;;;27.48;6.68;;;;;;;;;;5064351;28;20063;-59
2021/12/30 03:18:19;;;;;;;35.95;6.10;;;;;;;;;;5061010;28;20362;-59
2021/12/30 03:20:46;;;;;;;20.70;5.45;;;;;;;;;;5065205;28;20114;-58
2021/12/30 03:23:12;;;;;;;16.00;5.65;;;;;;;;;;5044583;28;20439;-59
2021/12/30 03:25:39;;;;;;;21.42;5.88;;;;;;;;;;5064806;28;20059;-59
2021/12/30 03:28:06;;;;;;;22.25;5.60;;;;;;;;;;5044636;28;20053;-60
2021/12/30 03:30:33;;;;;;;18.67;5.78;;;;;;;;;;5048410;28;20055;-59
2021/12/30 03:33:01;;;;;;;31.30;6.38;;;;;;;;;;5062094;28;20057;-59
2021/12/30 03:35:27;;;;;;;18.70;4.88;;;;;;;;;;5049868;28;20140;-59
2021/12/30 03:37:55;;;;;;;37.03;5.93;;;;;;;;;;5044989;28;20063;-61
2021/12/30 03:40:21;;;;;;;22.83;6.28;;;;;;;;;;5048139;28;20202;-59
2021/12/30 03:42:48;;;;;;;17.45;5.40;;;;;;;;;;5044156;28;20072;-58
2021/12/30 03:45:15;;;;;;;14.27;6.13;;;;;;;;;;5047691;28;20340;-58
2021/12/30 03:47:44;;;;;;;22.08;6.07;;;;;;;;;;5047960;28;20071;-59
2021/12/30 03:50:13;;;;;;;;;;;;;;;;;;5046189;28;20056;-59
2021/12/30 03:52:41;;;;;;;12.82;5.20;;;;;;;;;;5065887;28;19939;-58
2021/12/30 03:55:09;;;;;;;20.58;4.95;;;;;;;;;;5044676;28;20090;-60
2021/12/30 03:57:35;;;;;;;23.50;5.35;;;;;;;;;;5048489;28;20053;-58
2021/12/30 04:00:02;;;;;;;18.23;5.38;;;;;;;;;;5044788;28;20053;-59
2021/12/30 04:02:28;;;;;;;17.73;5.00;;;;;;;;;;5048538;28;20045;-60
2021/12/30 04:04:55;;;;;;;19.30;5.68;;;;;;;;;;5045152;28;20052;-57
2021/12/30 04:07:21;;;;;;;18.75;6.47;;;;;;;;;;5066231;28;20045;-58
2021/12/30 04:09:50;;;;;;;23.33;6.13;;;;;;;;;;5048138;28;20103;-60
2021/12/30 04:12:18;;;;;;;21.55;5.57;;;;;;;;;;5050016;28;20052;-58
2021/12/30 04:14:45;;;;;;;15.70;5.47;;;;;;;;;;5060733;28;20057;-58
2021/12/30 04:17:11;;;;;;;21.80;5.82;;;;;;;;;;5050959;28;20063;-57
2021/12/30 04:19:38;;;;;;;15.65;6.63;;;;;;;;;;5047692;28;20114;-57
2021/12/30 04:22:04;;;;;;;12.70;5.07;;;;;;;;;;5052002;28;20079;-58
2021/12/30 04:24:31;;;;;;;19.23;5.65;;;;;;;;;;5065871;28;21345;-59
2021/12/30 04:26:58;;;;;;;15.20;4.72;;;;;;;;;;5051420;28;20072;-59
2021/12/30 04:29:25;;;;;;;11.13;4.20;;;;;;;;;;5038677;28;20447;-61
2021/12/30 04:31:51;;;;;;;11.05;4.57;;;;;;;;;;5070084;28;20230;-58
2021/12/30 04:34:18;;;;;;;15.40;4.70;;;;;;;;;;5070888;28;20075;-58
2021/12/30 04:36:45;;;;;;;10.13;3.95;;;;;;;;;;5048821;28;20057;-60
2021/12/30 04:39:11;;;;;;;8.90;3.53;;;;;;;;;;5050422;28;20072;-59
2021/12/30 04:41:38;;;;;;;7.68;3.50;;;;;;;;;;5049437;28;20072;-59
2021/12/30 04:44:06;;;;;;;9.52;3.85;;;;;;;;;;5050998;28;20053;-59
2021/12/30 04:46:33;;;;;;;8.35;2.60;;;;;;;;;;5046746;28;20048;-59
2021/12/30 04:48:59;;;;;;;13.18;3.22;;;;;;;;;;5050900;28;20135;-59
2021/12/30 04:51:26;;;;;;;6.60;2.30;;;;;;;;;;5047260;28;20071;-58
2021/12/30 04:53:53;;;;;;;8.10;2.58;;;;;;;;;;5050259;28;20139;-60
2021/12/30 04:56:19;;;;;;;9.50;2.63;;;;;;;;;;5046827;28;20135;-59
2021/12/30 04:58:46;;;;;;;5.57;1.90;;;;;;;;;;5050535;28;20080;-59
2021/12/30 05:01:14;;;;;;;2.95;1.38;;;;;;;;;;5029670;28;20048;-60
2021/12/30 05:03:40;;;;;;;9.18;2.75;;;;;;;;;;5051107;28;20193;-58
2021/12/30 05:06:07;;;;;;;6.38;2.58;;;;;;;;;;5063961;28;20171;-59
2021/12/30 05:08:34;;;;;;;4.82;2.30;;;;;;;;;;5052124;28;20148;-59
2021/12/30 05:11:00;;;;;;;3.20;1.52;;;;;;;;;;5048578;28;20048;-59
2021/12/30 05:13:27;;;;;;;4.18;1.85;;;;;;;;;;5045020;28;20135;-59
2021/12/30 05:15:54;;;;;;;3.67;1.85;;;;;;;;;;5046928;28;20045;-59
2021/12/30 05:18:29;;;;;;;5.05;2.10;;;;;;;;;;5061382;28;20071;-60
2021/12/30 05:20:56;;;;;;;3.65;1.67;;;;;;;;;;5050498;28;20392;-58
2021/12/30 05:23:23;;;;;;;4.03;1.80;;;;;;;;;;5046880;28;20067;-58
2021/12/30 05:25:49;;;;;;;2.78;1.40;;;;;;;;;;5049838;28;20145;-61
2021/12/30 05:28:16;;;;;;;3.75;1.75;;;;;;;;;;5046384;28;20072;-59
2021/12/30 05:30:42;;;;;;;3.95;2.10;;;;;;;;;;5050364;28;20072;-58
2021/12/30 05:33:09;;;;;;;5.55;2.30;;;;;;;;;;5063389;28;20052;-60
2021/12/30 05:35:37;;;;;;;4.30;2.10;;;;;;;;;;5049769;28;20151;-60
2021/12/30 05:38:03;;;;;;;7.68;2.83;;;;;;;;;;5046865;28;20109;-58
2021/12/30 05:40:30;;;;;;;7.75;2.67;;;;;;;;;;5050765;28;20110;-60
2021/12/30 05:42:57;;;;;;;5.75;3.15;;;;;;;;;;5049512;28;20087;-59
2021/12/30 05:45:23;;;;;;;6.78;2.58;;;;;;;;;;5052725;28;20098;-58
2021/12/30 05:47:51;;;;;;;8.55;3.00;;;;;;;;;;5046939;28;20076;-59
2021/12/30 05:50:19;;;;;;;7.35;2.53;;;;;;;;;;5050636;28;20148;-58
2021/12/30 05:52:47;;;;;;;14.68;4.85;;;;;;;;;;5045830;28;20143;-57
2021/12/30 05:55:14;;;;;;;7.70;3.40;;;;;;;;;;5049146;28;20102;-58
2021/12/30 05:57:40;;;;;;;10.70;2.40;;;;;;;;;;5043898;28;20044;-59
2021/12/30 06:00:09;;;;;;;10.23;3.13;;;;;;;;;;5043753;28;20080;-59
2021/12/30 06:02:35;;;;;;;11.60;3.10;;;;;;;;;;5048842;28;20151;-58
2021/12/30 06:05:02;;;;;;;11.15;2.60;;;;;;;;;;5046014;28;20059;-59
2021/12/30 06:07:28;;;;;;;7.75;2.67;;;;;;;;;;5055043;28;20064;-60
2021/12/30 06:09:57;;;;;;;9.10;3.72;;;;;;;;;;5037880;28;20053;-58
2021/12/30 06:12:23;;;;;;;9.30;3.28;;;;;;;;;;5035650;28;20053;-60
2021/12/30 06:14:50;;;;;;;9.07;3.95;;;;;;;;;;5041759;28;20071;-59
2021/12/30 06:17:16;;;;;;;8.70;4.13;;;;;;;;;;5047168;28;20098;-61
2021/12/30 06:19:44;;;;;;;6.88;3.55;;;;;;;;;;5031494;28;20063;-60
2021/12/30 06:22:10;;;;;;;8.55;3.60;;;;;;;;;;5028312;28;20144;-58
2021/12/30 06:24:37;;;;;;;10.20;3.35;;;;;;;;;;5025245;28;20048;-59
2021/12/30 06:27:05;;;;;;;8.18;4.32;;;;;;;;;;5029415;28;20056;-61
2021/12/30 06:29:36;;;;;;;;;;;;;;;;;;5027459;28;20078;-59
2021/12/30 06:32:04;;;;;;;7.20;2.03;;;;;;;;;;5030692;28;19931;-59
2021/12/30 06:34:30;;;;;;;5.57;2.75;;;;;;;;;;5032944;28;20049;-60
2021/12/30 06:36:57;;;;;;;5.05;1.95;;;;;;;;;;5048754;28;20056;-61
2021/12/30 06:39:23;;;;;;;5.40;2.65;;;;;;;;;;5054617;28;20056;-59
2021/12/30 06:41:50;;;;;;;8.18;2.70;;;;;;;;;;5043201;28;20045;-58
2021/12/30 06:44:18;;;;;;;6.72;2.10;;;;;;;;;;5048384;28;20052;-59
2021/12/30 06:46:52;;;;;;;4.78;1.95;;;;;;;;;;5042345;28;20410;-60
2021/12/30 06:49:19;;;;;;;4.60;1.80;;;;;;;;;;5045118;28;20053;-58
2021/12/30 06:51:45;;;;;;;3.90;1.60;;;;;;;;;;5040976;28;20276;-59
2021/12/30 06:54:12;;;;;;;3.78;1.67;;;;;;;;;;5044406;28;20052;-60
2021/12/30 06:56:39;;;;;;;3.03;1.30;;;;;;;;;;5040714;28;20049;-59
2021/12/30 06:59:05;;;;;;;10.43;1.88;;;;;;;;;;5045718;28;20080;-61
2021/12/30 07:01:33;;;;;;;2.95;1.40;;;;;;;;;;5042240;28;20053;-60
2021/12/30 07:04:00;;;;;;;10.00;1.67;;;;;;;;;;5045389;28;20057;-60
2021/12/30 07:06:26;;;;;;;4.05;1.45;;;;;;;;;;5041241;28;20041;-61
2021/12/30 07:08:53;;;;;;;2.30;1.15;;;;;;;;;;5045656;28;20049;-60
2021/12/30 07:11:20;;;;;;;4.15;1.67;;;;;;;;;;5039016;28;20141;-60
2021/12/30 07:13:46;;;;;;;6.80;1.55;;;;;;;;;;5041111;28;20089;-59
2021/12/30 07:16:13;;;;;;;4.82;1.70;;;;;;;;;;5044341;28;20049;-59
2021/12/30 07:18:41;;;;;;;7.95;1.73;;;;;;;;;;5048354;28;20076;-59
2021/12/30 07:21:07;;;;;;;4.63;1.70;;;;;;;;;;5042601;28;20076;-61
2021/12/30 07:23:34;;;;;;;9.18;1.60;;;;;;;;;;5025463;28;20302;-61
2021/12/30 07:26:01;;;;;;;8.90;2.00;;;;;;;;;;5025306;28;20060;-58
2021/12/30 07:28:28;;;;;;;8.05;1.77;;;;;;;;;;5040338;28;20098;-58
2021/12/30 07:30:58;;;;;;;5.65;1.83;;;;;;;;;;5045330;28;20049;-61
2021/12/30 07:33:24;;;;;;;7.43;2.80;;;;;;;;;;5040950;28;20102;-58
2021/12/30 07:35:52;;;;;;;8.77;3.45;;;;;;;;;;5044619;28;20086;-59
2021/12/30 07:38:18;;;;;;;8.77;3.20;;;;;;;;;;5040807;28;20045;-58
2021/12/30 07:40:46;;;;;;;6.47;2.60;;;;;;;;;;5028305;28;20454;-58
2021/12/30 07:43:13;;;;;;;8.10;3.55;;;;;;;;;;5016805;28;20049;-59
2021/12/30 07:45:39;;;;;;;11.50;4.18;;;;;;;;;;5044783;28;20053;-58
2021/12/30 07:48:06;;;;;;;10.70;4.32;;;;;;;;;;5039215;28;20144;-59
2021/12/30 07:50:35;;;;;;;13.57;4.22;;;;;;;;;;5046897;28;20049;-58
2021/12/30 07:53:03;;;;;;;16.13;5.43;;;;;;;;;;5044803;28;20454;-61
2021/12/30 07:55:29;;;;;;;11.60;5.35;;;;;;;;;;5048452;28;20130;-60
2021/12/30 07:57:58;;;;;;;14.80;5.03;;;;;;;;;;5044580;28;20135;-60
2021/12/30 08:00:25;;;;;;;11.05;5.00;;;;;;;;;;5048496;28;20049;-59
2021/12/30 08:02:51;;;;;;;16.83;4.90;;;;;;;;;;5044990;28;20076;-58
2021/12/30 08:05:18;;;;;;;13.25;5.32;;;;;;;;;;5048445;28;20045;-59
2021/12/30 08:07:46;;;;;;;14.68;5.20;;;;;;;;;;5050784;28;20056;-59
2021/12/30 08:10:15;;;;;;;10.90;5.05;;;;;;;;;;5047594;28;20060;-59
2021/12/30 08:12:43;;;;;;;11.35;4.85;;;;;;;;;;5051742;28;20122;-59
2021/12/30 08:15:10;;;;;;;11.53;4.50;;;;;;;;;;5047813;28;20065;-57
2021/12/30 08:17:37;;;;;;;21.23;5.30;;;;;;;;;;5052725;28;20338;-57
2021/12/30 08:20:06;;;;;;;14.45;5.40;;;;;;;;;;5041944;28;20053;-58
2021/12/30 08:22:32;;;;;;;10.95;4.60;;;;;;;;;;5031735;28;20067;-59
2021/12/30 08:24:59;;;;;;;15.90;5.05;;;;;;;;;;5039430;28;20056;-59
2021/12/30 08:27:27;;;;;;;9.52;4.47;;;;;;;;;;5051114;28;20440;-57
2021/12/30 08:29:54;;;;;;;14.18;5.28;;;;;;;;;;5047881;28;20135;-59
2021/12/30 08:32:21;;;;;;;13.57;5.38;;;;;;;;;;5051544;28;20057;-59
2021/12/30 08:34:48;;;;;;;9.48;4.65;;;;;;;;;;5047304;28;20084;-58
2021/12/30 08:37:16;;;;;;;12.77;4.90;;;;;;;;;;5051617;28;20064;-60
2021/12/30 08:39:43;;;;;;;13.38;5.30;;;;;;;;;;5047269;28;20056;-59
2021/12/30 08:42:17;;;;;;;9.13;4.18;;;;;;;;;;5051576;28;20064;-58
2021/12/30 08:44:45;;;;;;;9.27;4.10;;;;;;;;;;5047100;28;20052;-58
2021/12/30 08:47:12;;;;;;;19.57;5.17;;;;;;;;;;5052006;28;20553;-60
2021/12/30 08:49:45;;;;;;;11.50;4.60;;;;;;;;;;5048717;28;20330;-58
2021/12/30 08:52:12;;;;;;;12.35;4.38;;;;;;;;;;5054692;28;20159;-58
2021/12/30 08:54:38;;;;;;;12.40;5.00;;;;;;;;;;5070087;28;20049;-58
2021/12/30 08:57:05;;;;;;;16.98;7.82;;;;;;;;;;5047211;28;20173;-57
2021/12/30 08:59:35;;;;;;;12.75;5.22;;;;;;;;;;5050794;28;20080;-57
2021/12/30 09:02:03;;;;;;;9.35;4.25;;;;;;;;;;5046001;28;20079;-57
2021/12/30 09:04:29;;;;;;;12.55;4.30;;;;;;;;;;5050924;28;20076;-60
2021/12/30 09:06:56;;;;;;;17.40;4.80;;;;;;;;;;5063413;28;20608;-60
2021/12/30 09:09:23;;;;;;;9.70;3.47;;;;;;;;;;5049992;28;20052;-60
2021/12/30 09:11:49;;;;;;;12.30;4.40;;;;;;;;;;5046852;28;20167;-58
2021/12/30 09:14:16;;;;;;;11.23;4.18;;;;;;;;;;5051466;28;20142;-59
2021/12/30 09:16:42;;;;;;;18.27;4.30;;;;;;;;;;5062312;28;20143;-59
2021/12/30 09:19:12;;;;;;;9.40;4.40;;;;;;;;;;5050613;28;20060;-57
2021/12/30 09:21:39;;;;;;;14.63;3.97;;;;;;;;;;5039135;28;20087;-58
2021/12/30 09:24:05;;;;;;;17.42;4.07;;;;;;;;;;5030881;28;20091;-59
2021/12/30 09:26:32;;;;;;;14.40;4.13;;;;;;;;;;5021789;28;20071;-57
2021/12/30 09:28:59;;;;;;;13.68;3.67;;;;;;;;;;5032448;28;20072;-60
2021/12/30 09:31:28;;;;;;;19.35;4.30;;;;;;;;;;5045533;28;20060;-58
2021/12/30 09:33:54;;;;;;;14.95;4.00;;;;;;;;;;5050174;28;20052;-59
2021/12/30 09:36:22;;;;;;;18.60;2.85;;;;;;;;;;5046907;28;20110;-58
2021/12/30 09:38:49;;;;;;;13.00;3.00;;;;;;;;;;5028624;28;20099;-59
2021/12/30 09:41:16;;;;;;;12.38;3.22;;;;;;;;;;5030170;28;20479;-58
2021/12/30 09:43:43;;;;;;;17.83;3.53;;;;;;;;;;5026899;28;20197;-58
2021/12/30 09:46:10;;;;;;;11.98;2.85;;;;;;;;;;5030240;28;20076;-58
2021/12/30 09:48:36;;;;;;;17.10;3.28;;;;;;;;;;5041367;28;20049;-59
2021/12/30 09:51:06;;;;;;;17.70;3.28;;;;;;;;;;5050524;28;20056;-59
2021/12/30 09:53:34;;;;;;;11.55;3.30;;;;;;;;;;5034289;28;20056;-59
2021/12/30 09:56:01;;;;;;;13.57;2.55;;;;;;;;;;5029887;28;20075;-58
2021/12/30 09:58:28;;;;;;;15.18;3.38;;;;;;;;;;5036542;28;20048;-58
2021/12/30 10:00:55;;;;;;;29.10;3.65;;;;;;;;;;5049365;28;20101;-58
2021/12/30 10:03:21;;;;;;;9.93;3.33;;;;;;;;;;5038405;28;20048;-59
2021/12/30 10:05:48;;;;;;;21.35;3.85;;;;;;;;;;5029238;28;20563;-60
2021/12/30 10:08:16;;;;;;;14.27;3.67;;;;;;;;;;5036584;28;20094;-58
2021/12/30 10:10:45;;;;;;;18.08;3.50;;;;;;;;;;5048186;28;20076;-58
2021/12/30 10:13:19;;;;;;;14.10;2.88;;;;;;;;;;5046101;28;20049;-59
2021/12/30 10:15:46;;;;;;;7.95;3.03;;;;;;;;;;5049462;28;20094;-58
2021/12/30 10:18:13;;;;;;;18.25;3.33;;;;;;;;;;5046012;28;20046;-58
2021/12/30 10:20:42;;;;;;;14.98;3.17;;;;;;;;;;5049944;28;20098;-59
2021/12/30 10:23:08;;;;;;;;;;;;;;;;;;5048991;28;20067;-59
2021/12/30 10:25:36;;;;;;;14.55;3.75;;;;;;;;;;5046939;28;20017;-58
2021/12/30 10:28:20;;;;;;;15.68;3.00;;;;;;;;;;5048707;28;20060;-61
2021/12/30 10:30:48;;;;;;;15.25;2.90;;;;;;;;;;5045105;28;20052;-58
2021/12/30 10:33:15;;;;;;;13.32;2.72;;;;;;;;;;5045737;28;20101;-59
2021/12/30 10:35:42;;;;;;;13.02;2.45;;;;;;;;;;5026763;28;20174;-58
2021/12/30 10:38:12;;;;;;;14.65;2.67;;;;;;;;;;5028973;28;20477;-58
2021/12/30 10:40:40;;;;;;;17.90;3.38;;;;;;;;;;5041473;28;20147;-58
2021/12/30 10:43:17;;;;;;;17.87;2.90;;;;;;;;;;5048688;28;20076;-58
2021/12/30 10:46:00;;;;;;;16.83;2.80;;;;;;;;;;5030322;28;20303;-58
2021/12/30 10:48:27;;;;;;;16.70;3.33;;;;;;;;;;5028461;28;20056;-59
2021/12/30 10:51:08;;;;;;;21.33;5.10;;;;;;;;;;5039860;28;20114;-59
2021/12/30 10:53:36;;;;;;;11.68;3.25;;;;;;;;;;5049026;28;20068;-59
2021/12/30 10:56:17;;;;;;;17.02;3.40;;;;;;;;;;5043957;28;20052;-59
2021/12/30 10:58:44;;;;;;;15.80;3.50;;;;;;;;;;5050160;28;20110;-58
2021/12/30 11:01:16;;;;;;;16.23;3.38;;;;;;;;;;5044129;28;20498;-59
2021/12/30 11:03:42;;;;;;;13.05;3.22;;;;;;;;;;5048634;28;20044;-60
2021/12/30 11:06:13;;;;;;;27.05;3.50;;;;;;;;;;5042308;28;20052;-58
2021/12/30 11:08:40;;;;;;;25.20;3.35;;;;;;;;;;5048295;28;20052;-58
2021/12/30 11:11:21;;;;;;;21.45;3.88;;;;;;;;;;5043873;28;20057;-59
2021/12/30 11:13:57;;;;;;;15.35;3.50;;;;;;;;;;5045324;28;20053;-58
2021/12/30 11:16:25;;;;;;;19.63;4.13;;;;;;;;;;5051654;28;20064;-60
2021/12/30 11:18:51;;;;;;;30.50;4.07;;;;;;;;;;5047987;28;20139;-58
2021/12/30 11:21:33;;;;;;;14.57;2.75;;;;;;;;;;5044443;28;20116;-61
2021/12/30 11:23:59;;;;;;;22.60;3.55;;;;;;;;;;5048444;28;20106;-58
2021/12/30 11:26:26;;;;;;;17.60;2.95;;;;;;;;;;5048763;28;20048;-58
2021/12/30 11:28:53;;;;;;;18.50;2.90;;;;;;;;;;5037037;28;20059;-59
2021/12/30 11:31:21;;;;;;;19.88;2.90;;;;;;;;;;5034985;28;20036;-59
2021/12/30 11:33:49;;;;;;;10.97;2.83;;;;;;;;;;5052365;28;20117;-58
2021/12/30 11:36:17;;;;;;;16.45;2.92;;;;;;;;;;5048346;28;20143;-58
2021/12/30 11:38:44;;;;;;;16.83;2.78;;;;;;;;;;5051861;28;20053;-60
2021/12/30 11:41:16;;;;;;;17.00;2.95;;;;;;;;;;5050212;28;20106;-61
2021/12/30 11:43:44;;;;;;;14.52;2.42;;;;;;;;;;5032712;28;20119;-57
2021/12/30 11:46:25;;;;;;;16.67;3.00;;;;;;;;;;5032592;28;20061;-58
2021/12/30 11:48:55;;;;;;;18.05;2.65;;;;;;;;;;5030340;28;20122;-58
2021/12/30 11:51:23;;;;;;;8.93;2.33;;;;;;;;;;5049174;28;20063;-59
2021/12/30 11:53:50;;;;;;;10.07;2.42;;;;;;;;;;5045202;28;20057;-58
2021/12/30 11:56:18;;;;;;;17.80;2.15;;;;;;;;;;5049563;28;20053;-58
2021/12/30 11:58:46;;;;;;;13.40;2.40;;;;;;;;;;5043569;28;20052;-61
2021/12/30 12:01:14;;;;;;;;;;;;;;;;;;5072118;28;20110;-58
2021/12/30 12:03:42;;;;;;;19.02;2.40;;;;;;;;;;5038072;28;19982;-59
2021/12/30 12:06:27;;;;;;;20.40;2.50;;;;;;;;;;5032948;28;20049;-58
2021/12/30 12:08:58;;;;;;;24.10;2.30;;;;;;;;;;5043051;28;20331;-57
2021/12/30 12:11:26;;;;;;;14.68;3.17;;;;;;;;;;5052074;28;20114;-60
2021/12/30 12:13:54;;;;;;;18.13;2.50;;;;;;;;;;5048806;28;20045;-58
2021/12/30 12:16:43;;;;;;;13.13;1.92;;;;;;;;;;5051544;28;20056;-58
2021/12/30 12:19:11;;;;;;;14.20;2.63;;;;;;;;;;5048768;28;20399;-60
2021/12/30 12:21:38;;;;;;;17.93;2.37;;;;;;;;;;5051366;28;20056;-61
2021/12/30 12:24:20;;;;;;;14.30;2.75;;;;;;;;;;5037675;28;20059;-57
2021/12/30 12:26:47;;;;;;;11.32;2.67;;;;;;;;;;5030011;28;20151;-58
2021/12/30 12:29:25;;;;;;;14.18;2.67;;;;;;;;;;5037610;28;20121;-60
2021/12/30 12:31:55;;;;;;;17.15;2.63;;;;;;;;;;5051279;28;20129;-61
2021/12/30 12:34:33;;;;;;;15.57;3.50;;;;;;;;;;5047305;28;20055;-58
2021/12/30 12:36:59;;;;;;;14.60;3.65;;;;;;;;;;5066560;28;20064;-59
2021/12/30 12:39:36;;;;;;;19.80;3.38;;;;;;;;;;5046593;28;20044;-60
2021/12/30 12:42:05;;;;;;;25.95;2.75;;;;;;;;;;5050780;28;20103;-60
2021/12/30 12:44:32;;;;;;;12.80;2.78;;;;;;;;;;5047297;28;20087;-58
2021/12/30 12:46:59;;;;;;;15.48;2.88;;;;;;;;;;5050811;28;20153;-58
2021/12/30 12:49:42;;;;;;;11.57;2.63;;;;;;;;;;5047502;28;20567;-59
2021/12/30 12:52:09;;;;;;;14.75;3.03;;;;;;;;;;5051157;28;20069;-61
2021/12/30 12:54:36;;;;;;;12.05;2.53;;;;;;;;;;5046923;28;20059;-58
2021/12/30 12:57:09;;;;;;;11.82;3.10;;;;;;;;;;5067916;28;20086;-59
2021/12/30 12:59:38;;;;;;;16.38;3.33;;;;;;;;;;5047616;28;20059;-61
2021/12/30 13:02:04;;;;;;;;;;;;;;;;;;5051577;28;20048;-58
2021/12/30 13:04:31;;;;;;;11.82;2.65;;;;;;;;;;5047741;28;19935;-59
2021/12/30 13:06:59;;;;;;;11.32;2.95;;;;;;;;;;5050841;28;20083;-58
2021/12/30 13:09:26;;;;;;;6.82;2.63;;;;;;;;;;5050996;28;20048;-58
2021/12/30 13:11:54;;;;;;;20.65;3.15;;;;;;;;;;5047034;28;20506;-59
2021/12/30 13:14:24;;;;;;;11.00;2.90;;;;;;;;;;5050806;28;20056;-59
2021/12/30 13:16:54;;;;;;;5.85;2.42;;;;;;;;;;5042523;28;20169;-61
2021/12/30 13:19:21;;;;;;;18.20;2.80;;;;;;;;;;5030670;28;20049;-61
2021/12/30 13:21:53;;;;;;;14.88;2.45;;;;;;;;;;5042392;28;20037;-58
2021/12/30 13:24:29;;;;;;;16.13;2.60;;;;;;;;;;5050809;28;20040;-59
2021/12/30 13:26:56;;;;;;;8.85;2.30;;;;;;;;;;5046349;28;20501;-60
2021/12/30 13:29:28;;;;;;;13.00;2.05;;;;;;;;;;5050832;28;20074;-60
2021/12/30 13:31:59;;;;;;;15.65;2.35;;;;;;;;;;5046330;28;20049;-59
2021/12/30 13:34:25;;;;;;;17.75;2.80;;;;;;;;;;5049943;28;20051;-59
2021/12/30 13:36:55;;;;;;;8.30;2.03;;;;;;;;;;5047824;28;20108;-58
2021/12/30 13:39:21;;;;;;;16.75;2.70;;;;;;;;;;5052904;28;20075;-59
2021/12/30 13:41:51;;;;;;;15.85;2.75;;;;;;;;;;5048005;28;20055;-58
2021/12/30 13:44:19;;;;;;;15.75;2.50;;;;;;;;;;5050499;28;20052;-61
2021/12/30 13:46:47;;;;;;;25.08;5.68;;;;;;;;;;5046056;28;20049;-60
2021/12/30 13:49:14;;;;;;;14.63;4.13;;;;;;;;;;5049788;28;20056;-61
2021/12/30 13:51:41;;;;;;;18.45;2.70;;;;;;;;;;5063907;28;20456;-59
2021/12/30 13:54:08;;;;;;;11.68;2.70;;;;;;;;;;5049844;28;20190;-60
2021/12/30 13:56:35;;;;;;;15.88;2.50;;;;;;;;;;5045672;28;20472;-59
2021/12/30 13:59:04;;;;;;;12.38;2.67;;;;;;;;;;5049850;28;20049;-60
2021/12/30 14:01:32;;;;;;;15.55;3.25;;;;;;;;;;5049399;28;20052;-60
2021/12/30 14:04:05;;;;;;;12.67;2.57;;;;;;;;;;5045917;28;20068;-59
2021/12/30 14:06:32;;;;;;;14.63;2.60;;;;;;;;;;5049318;28;20056;-59
2021/12/30 14:09:00;;;;;;;11.48;3.40;;;;;;;;;;5044562;28;20048;-60
2021/12/30 14:11:27;;;;;;;12.45;2.92;;;;;;;;;;5049188;28;20052;-60
2021/12/30 14:13:54;;;;;;;25.65;2.45;;;;;;;;;;5045466;28;20378;-60
2021/12/30 14:16:22;;;;;;;9.82;2.33;;;;;;;;;;5050446;28;20465;-59
2021/12/30 14:18:52;;;;;;;16.08;2.88;;;;;;;;;;5044316;28;20076;-59
2021/12/30 14:21:23;;;;;;;10.80;2.35;;;;;;;;;;5049147;28;20044;-59
2021/12/30 14:23:52;;;;;;;7.95;2.78;;;;;;;;;;5061235;28;20067;-60
2021/12/30 14:26:21;;;;;;;10.63;3.10;;;;;;;;;;5049523;28;20048;-59
2021/12/30 14:28:49;;;;;;;9.75;2.55;;;;;;;;;;5044794;28;20052;-62
2021/12/30 14:31:20;;;;;;;6.95;1.98;;;;;;;;;;5049076;28;20052;-59
2021/12/30 14:33:47;;;;;;;10.18;2.10;;;;;;;;;;5046031;28;20048;-59
2021/12/30 14:36:15;;;;;;;7.85;2.30;;;;;;;;;;5049279;28;20048;-59
2021/12/30 14:38:45;;;;;;;14.15;2.47;;;;;;;;;;5046324;28;20053;-60
2021/12/30 14:41:15;;;;;;;12.73;2.30;;;;;;;;;;5032780;28;20169;-61